Time,TemperatureF,DewpointF,PressureIn,WindDirection,WindDirectionDegrees,WindSpeedMPH,WindSpeedGustMPH,Humidity,HourlyPrecipIn,Conditions,Clouds,dailyrainin,SoftwareType,DateUTC
2013-10-03 00:00:00,48.0,39.4,29.78,WSW,238,0.0,2.0,72,0.00,CLR,,0.00,WeatherDisplay:10.37,2013-10-03 05:00:00,
2013-10-03 00:30:00,47.0,39.1,29.77,South,191,0.0,0.0,74,0.00,CLR,,0.00,WeatherDisplay:10.37,2013-10-03 05:30:00,
2013-10-03 01:00:00,46.1,39.0,29.78,South,191,0.0,0.0,76,0.00,CLR,,0.00,WeatherDisplay:10.37,2013-10-03 06:00:00,
2013-10-03 01:30:00,45.8,39.0,29.76,South,191,0.0,0.0,77,0.00,CLR,,0.00,WeatherDisplay:10.37,2013-10-03 06:30:00,
2013-10-03 02:00:00,79.0,44.9,29.75,SW,225,6.0,14.0,30,0.00,CLR,,0.00,WeatherDisplay:10.37,2013-10-03 07:00:00,
2013-10-03 02:30:00,78.6,45.4,29.75,SSW,202,7.0,16.0,31,0.00,CLR,,0.00,WeatherDisplay:10.37,2013-10-03 07:30:00,
2013-10-03 03:00:00,80.1,44.0,29.72,SW,225,7.0,18.0,28,0.00,CLR,,0.00,WeatherDisplay:10.37,2013-10-03 08:00:00,
2013-10-03 03:30:00,80.3,44.2,29.69,SSW,202,7.0,16.0,28,0.00,CLR,,0.00,WeatherDisplay:10.37,2013-10-03 08:30:00,
2013-10-03 04:00:00,80.1,44.0,29.67,SW,225,6.0,16.0,28,0.00,CLR,,0.00,WeatherDisplay:10.37,2013-10-03 09:00:00,
2013-10-03 04:30:00,79.9,43.9,29.65,SW,225,5.0,17.0,28,0.00,CLR,,0.00,WeatherDisplay:10.37,2013-10-03 09:30:00,
2013-10-03 05:00:00,80.3,44.2,29.63,SSW,202,3.0,12.0,28,0.00,CLR,,0.00,WeatherDisplay:10.37,2013-10-03 10:00:00,
2013-10-03 05:30:00,81.4,44.2,29.55,SW,225,3.0,11.0,27,0.00,CLR,,0.00,WeatherDisplay:10.37,2013-10-03 10:30:00,
2013-10-03 06:00:00,81.4,43.2,29.54,WSW,248,7.0,17.0,26,0.00,CLR,,0.00,WeatherDisplay:10.37,2013-10-03 11:00:00,
2013-10-03 06:30:00,81.6,44.4,29.59,SSW,202,5.0,18.0,27,0.00,CLR,,0.00,WeatherDisplay:10.37,2013-10-03 11:30:00,
2013-10-03 07:00:00,78.5,42.7,29.61,SSW,202,7.0,18.0,28,0.00,CLR,,0.00,WeatherDisplay:10.37,2013-10-03 12:00:00,
2013-10-03 07:30:00,77.4,43.5,29.65,South,180,3.0,13.0,30,0.00,CLR,,0.00,WeatherDisplay:10.37,2013-10-03 12:30:00,
2013-10-03 08:00:00,76.1,44.1,29.65,South,180,0.0,6.0,32,0.00,CLR,,0.00,WeatherDisplay:10.37,2013-10-03 13:00:00,
2013-10-03 08:30:00,72.3,46.6,29.68,South,180,0.0,1.0,40,0.00,CLR,,0.00,WeatherDisplay:10.37,2013-10-03 13:30:00,
2013-10-03 09:00:00,66.1,47.4,29.72,South,180,0.0,3.0,51,0.00,CLR,,0.00,WeatherDisplay:10.37,2013-10-03 14:00:00,
2013-10-03 09:30:00,61.8,46.4,29.65,South,180,0.0,1.0,57,0.00,CLR,,0.00,WeatherDisplay:10.37,2013-10-03 14:30:00,
2013-10-03 10:00:00,59.9,46.0,29.67,South,180,0.0,1.0,60,0.00,CLR,,0.00,WeatherDisplay:10.37,2013-10-03 15:00:00,
2013-10-03 10:30:00,58.6,44.8,29.64,South,180,0.0,1.0,60,0.00,CLR,,0.00,WeatherDisplay:10.37,2013-10-03 15:30:00,
2013-10-03 11:00:00,57.5,44.1,29.65,South,180,0.0,2.0,61,0.00,CLR,,0.00,WeatherDisplay:10.37,2013-10-03 16:00:00,
2013-10-03 11:30:00,55.9,43.9,29.66,South,180,0.0,2.0,64,0.00,CLR,,0.00,WeatherDisplay:10.37,2013-10-03 16:30:00,
2013-10-03 12:00:00,56.3,44.3,29.67,South,180,0.0,4.0,64,0.00,CLR,,0.00,WeatherDisplay:10.37,2013-10-03 17:00:00,
2013-10-03 12:30:00,56.2,45.0,29.64,South,180,0.0,0.0,66,0.00,CLR,,0.00,WeatherDisplay:10.37,2013-10-03 17:30:00,
2013-10-03 13:00:00,61.2,47.6,29.62,West,270,1.0,6.0,61,0.00,CLR,,0.00,WeatherDisplay:10.37,2013-10-03 18:00:00,
2013-10-03 13:30:00,57.8,47.3,29.62,West,270,1.0,3.0,68,0.00,CLR,,0.00,WeatherDisplay:10.37,2013-10-03 18:30:00,
2013-10-03 14:00:00,55.7,46.1,29.64,West,270,0.0,3.0,70,0.00,CLR,,0.00,WeatherDisplay:10.37,2013-10-03 19:00:00,
2013-10-03 14:30:00,55.6,47.4,29.62,WSW,248,1.0,7.0,74,0.00,CLR,,0.00,WeatherDisplay:10.37,2013-10-03 19:30:00,
2013-10-03 15:00:00,69.4,50.5,29.53,SSW,202,8.0,19.0,51,0.00,CLR,,0.00,WeatherDisplay:10.37,2013-10-03 20:00:00,
2013-10-03 15:30:00,68.9,50.0,29.53,SSW,202,6.0,16.0,51,0.00,CLR,,0.00,WeatherDisplay:10.37,2013-10-03 20:30:00,
2013-10-03 16:00:00,67.8,50.0,29.55,SSW,202,3.0,8.0,53,0.00,CLR,,0.00,WeatherDisplay:10.37,2013-10-03 21:00:00,
2013-10-03 16:30:00,68.9,48.4,29.54,WSW,248,5.0,14.0,48,0.00,CLR,,0.00,WeatherDisplay:10.37,2013-10-03 21:30:00,
2013-10-03 17:00:00,66.6,48.4,29.55,SSW,202,0.0,7.0,52,0.00,CLR,,0.00,WeatherDisplay:10.37,2013-10-03 22:00:00,
2013-10-03 17:30:00,60.4,47.3,29.58,SSW,202,0.0,2.0,62,0.00,CLR,,0.00,WeatherDisplay:10.37,2013-10-03 22:30:00,
2013-10-03 18:00:00,58.3,47.4,29.60,SSW,202,0.0,1.0,67,0.00,CLR,,0.00,WeatherDisplay:10.37,2013-10-03 23:00:00,
2013-10-03 18:30:00,56.6,46.9,29.62,SSW,202,0.0,3.0,70,0.00,CLR,,0.00,WeatherDisplay:10.37,2013-10-03 23:30:00,
2013-10-03 19:00:00,53.6,45.2,29.66,SSW,202,0.0,1.0,73,0.00,CLR,,0.00,WeatherDisplay:10.37,2013-10-04 00:00:00,
2013-10-03 19:30:00,50.7,43.8,29.70,SSW,202,0.0,1.0,77,0.00,CLR,,0.00,WeatherDisplay:10.37,2013-10-04 00:30:00,
2013-10-03 20:00:00,48.6,42.0,29.72,SSW,202,0.0,0.0,78,0.00,CLR,,0.00,WeatherDisplay:10.37,2013-10-04 01:00:00,
2013-10-03 20:30:00,46.8,41.0,29.80,SSW,202,0.0,0.0,80,0.00,CLR,,0.00,WeatherDisplay:10.37,2013-10-04 01:30:00,
2013-10-03 21:00:00,45.5,40.3,29.82,SSW,202,0.0,1.0,82,0.00,CLR,,0.00,WeatherDisplay:10.37,2013-10-04 02:00:00,
2013-10-03 21:30:00,46.2,41.0,29.85,SSW,202,0.0,1.0,82,0.00,CLR,,0.00,WeatherDisplay:10.37,2013-10-04 02:30:00,
2013-10-03 22:00:00,55.9,43.1,29.81,SSW,202,0.0,2.0,62,0.00,CLR,,0.00,WeatherDisplay:10.37,2013-10-04 03:00:00,
2013-10-03 22:30:00,67.8,42.6,29.77,SSW,202,0.0,1.0,40,0.00,CLR,,0.00,WeatherDisplay:10.37,2013-10-04 03:30:00,
2013-10-03 23:00:00,72.7,35.8,29.75,West,270,1.0,6.0,26,0.00,CLR,,0.00,WeatherDisplay:10.37,2013-10-04 04:00:00,
2013-10-03 23:30:00,74.7,34.4,29.73,WNW,292,1.0,6.0,23,0.00,CLR,,0.00,WeatherDisplay:10.37,2013-10-04 04:30:00,